createdAt,value
2022-08-20T00:02:27.482Z,93.77
2022-08-20T00:07:29.264Z,94.00
2022-08-20T00:12:30.923Z,94.88
2022-08-20T00:17:37.095Z,94.65
2022-08-20T00:22:38.839Z,94.23
2022-08-20T00:27:40.509Z,94.47
2022-08-20T00:32:44.080Z,94.23
2022-08-20T00:37:45.814Z,94.19
2022-08-20T00:42:49.827Z,94.00
2022-08-20T00:47:51.771Z,94.34
2022-08-20T00:52:53.723Z,94.71
2022-08-20T00:58:01.112Z,94.86
2022-08-20T01:03:03.771Z,94.69
2022-08-20T01:08:05.456Z,94.06
2022-08-20T01:13:12.492Z,93.86
2022-08-20T01:18:16.449Z,94.54
2022-08-20T01:23:30.334Z,94.79
2022-08-20T01:28:35.415Z,95.13
2022-08-20T01:33:37.083Z,95.63
2022-08-20T01:38:38.856Z,96.07
2022-08-20T01:43:41.843Z,96.53
2022-08-20T01:48:43.584Z,96.99
2022-08-20T01:53:47.515Z,97.49
2022-08-20T01:58:55.970Z,98.03
2022-08-20T02:04:01.954Z,97.59
2022-08-20T02:09:04.103Z,97.58
2022-08-20T02:14:07.239Z,98.24
2022-08-20T02:19:15.166Z,98.39
2022-08-20T02:24:16.814Z,98.69
2022-08-20T02:29:18.519Z,98.89
2022-08-20T02:34:22.925Z,98.80
2022-08-20T02:39:26.667Z,99.29
2022-08-20T02:44:28.327Z,99.88
2022-08-20T02:49:30.169Z,99.58
2022-08-20T02:54:31.863Z,99.45
2022-08-20T02:59:33.567Z,99.25
2022-08-20T03:04:35.302Z,99.40
2022-08-20T03:09:37.055Z,99.25
2022-08-20T03:14:38.705Z,100.00
2022-08-20T03:19:40.365Z,99.61
2022-08-20T03:24:42.102Z,100.00
2022-08-20T03:29:43.776Z,100.00
2022-08-20T03:34:45.470Z,100.00
2022-08-20T03:39:47.289Z,100.00
2022-08-20T03:44:49.223Z,100.00
2022-08-20T03:50:01.126Z,100.00
2022-08-20T03:55:03.478Z,100.00
2022-08-20T04:00:06.423Z,100.00
2022-08-20T04:05:13.503Z,100.00
2022-08-20T04:10:15.146Z,100.00
2022-08-20T04:15:17.187Z,100.00
2022-08-20T04:20:23.704Z,100.00
2022-08-20T04:25:25.360Z,100.00
2022-08-20T04:30:28.843Z,100.00
2022-08-20T04:35:30.803Z,100.00
2022-08-20T04:40:51.415Z,100.00
2022-08-20T04:45:53.633Z,100.00
2022-08-20T04:50:55.697Z,100.00
2022-08-20T04:56:00.748Z,100.00
2022-08-20T05:01:07.136Z,100.00
2022-08-20T05:06:09.800Z,100.00
2022-08-20T05:11:35.902Z,100.00
2022-08-20T05:16:37.935Z,100.00
2022-08-20T05:21:39.731Z,100.00
2022-08-20T05:26:41.445Z,100.00
2022-08-20T05:31:43.280Z,100.00
2022-08-20T05:36:48.160Z,100.00
2022-08-20T05:41:51.188Z,100.00
2022-08-20T05:46:52.854Z,100.00
2022-08-20T05:51:54.588Z,100.00
2022-08-20T05:56:56.398Z,100.00
2022-08-20T06:01:58.087Z,100.00
2022-08-20T06:07:04.830Z,98.66
2022-08-20T06:12:08.838Z,98.77
2022-08-20T06:17:15.620Z,96.95
2022-08-20T06:22:19.580Z,96.70
2022-08-20T06:27:26.309Z,97.55
2022-08-20T06:32:32.007Z,98.37
2022-08-20T06:37:36.477Z,100.00
2022-08-20T06:42:47.854Z,100.00
2022-08-20T06:47:50.192Z,100.00
2022-08-20T06:52:53.207Z,100.00
2022-08-20T06:58:02.631Z,100.00
2022-08-20T07:03:04.865Z,100.00
2022-08-20T07:08:06.543Z,100.00
2022-08-20T07:13:09.264Z,100.00
2022-08-20T07:18:11.116Z,100.00
2022-08-20T07:23:12.784Z,100.00
2022-08-20T07:28:16.501Z,100.00
2022-08-20T07:33:18.383Z,100.00
2022-08-20T07:38:24.786Z,99.87
2022-08-20T07:43:26.478Z,99.58
2022-08-20T07:48:32.478Z,98.48
2022-08-20T07:53:36.169Z,96.82
2022-08-20T07:58:39.311Z,94.53
2022-08-20T08:03:49.717Z,95.83
2022-08-20T08:08:52.209Z,96.22
2022-08-20T08:13:54.526Z,98.41
2022-08-20T08:19:01.253Z,100.00
2022-08-20T08:24:03.873Z,98.59
2022-08-20T08:29:07.536Z,96.87
2022-08-20T08:34:10.354Z,95.85
2022-08-20T08:39:12.012Z,92.77
2022-08-20T08:44:23.069Z,91.67
2022-08-20T08:49:37.603Z,90.30
2022-08-20T08:54:42.463Z,89.33
2022-08-20T08:59:47.375Z,89.42
2022-08-20T09:05:14.917Z,88.07
2022-08-20T09:10:17.527Z,86.76
2022-08-20T09:15:24.907Z,84.18
2022-08-20T09:20:27.169Z,83.78
2022-08-20T09:25:28.982Z,83.93
2022-08-20T09:30:30.693Z,83.71
2022-08-20T09:35:32.495Z,85.00
2022-08-20T09:40:34.674Z,83.21
2022-08-20T09:45:36.459Z,83.35
2022-08-20T09:50:38.933Z,84.02
2022-08-20T09:55:41.813Z,84.43
2022-08-20T10:00:43.477Z,85.55
2022-08-20T10:05:45.200Z,84.68
2022-08-20T10:10:46.877Z,83.83
2022-08-20T10:15:48.551Z,83.66
2022-08-20T10:20:50.241Z,83.77
2022-08-20T10:25:51.932Z,81.46
2022-08-20T10:30:53.580Z,77.40
2022-08-20T10:35:59.648Z,77.41
2022-08-20T10:41:01.824Z,77.03
2022-08-20T10:46:03.587Z,77.10
2022-08-20T10:51:05.352Z,77.87
2022-08-20T10:56:07.256Z,78.68
2022-08-20T11:01:08.997Z,77.92
2022-08-20T11:06:10.674Z,77.79
2022-08-20T11:11:14.502Z,78.15
2022-08-20T11:16:16.163Z,77.74
2022-08-20T11:21:17.864Z,77.64
2022-08-20T11:26:22.229Z,78.35
2022-08-20T11:31:23.931Z,78.30
2022-08-20T11:36:26.443Z,75.41
2022-08-20T11:41:28.116Z,76.26
2022-08-20T11:46:29.825Z,74.34
2022-08-20T11:51:31.470Z,74.39
2022-08-20T11:56:51.489Z,73.46
2022-08-20T12:02:02.851Z,72.18
2022-08-20T12:07:10.245Z,71.90
2022-08-20T12:12:12.117Z,70.55
2022-08-20T12:17:23.962Z,68.86
2022-08-20T12:22:25.769Z,67.54
2022-08-20T12:27:28.950Z,65.18
2022-08-20T12:32:31.234Z,66.92
2022-08-20T12:37:32.911Z,67.73
2022-08-20T12:42:34.648Z,71.95
2022-08-20T12:47:38.188Z,75.11
2022-08-20T12:52:39.869Z,77.50
2022-08-20T12:57:52.636Z,80.49
2022-08-20T13:02:55.098Z,82.62
2022-08-20T13:07:56.898Z,87.06
2022-08-20T13:12:59.068Z,94.95
2022-08-20T13:18:01.739Z,99.82
2022-08-20T13:23:04.407Z,100.00
2022-08-20T13:28:06.103Z,100.00
2022-08-20T13:33:07.774Z,100.00
2022-08-20T13:38:09.444Z,99.49
2022-08-20T13:43:11.965Z,98.89
2022-08-20T13:48:14.903Z,92.63
2022-08-20T13:53:17.547Z,88.19
2022-08-20T13:58:21.641Z,85.47
2022-08-20T14:03:25.273Z,81.75
2022-08-20T14:08:27.439Z,80.53
2022-08-20T14:13:29.183Z,78.81
2022-08-20T14:18:30.857Z,78.89
2022-08-20T14:23:32.526Z,77.41
2022-08-20T14:28:38.653Z,76.16
2022-08-20T14:33:44.423Z,78.24
2022-08-20T14:38:46.415Z,79.21
2022-08-20T14:43:48.191Z,80.28
2022-08-20T14:48:53.300Z,79.46
2022-08-20T14:53:55.233Z,78.26
2022-08-20T14:58:56.896Z,75.23
2022-08-20T15:03:58.561Z,71.80
2022-08-20T15:09:00.225Z,67.38
2022-08-20T15:14:01.920Z,64.80
2022-08-20T15:19:03.799Z,64.18
2022-08-20T15:24:05.577Z,63.44
2022-08-20T15:29:23.050Z,60.35
2022-08-20T15:34:25.240Z,59.17
2022-08-20T15:39:27.879Z,57.04
2022-08-20T15:44:29.534Z,56.91
2022-08-20T15:49:31.188Z,59.68
2022-08-20T15:54:32.852Z,58.96
2022-08-20T16:00:22.882Z,59.86
2022-08-20T16:05:38.767Z,59.17
2022-08-20T16:10:46.421Z,58.92
2022-08-20T16:15:49.660Z,58.42
2022-08-20T16:20:52.711Z,57.32
2022-08-20T16:26:28.351Z,58.95
2022-08-20T16:31:32.764Z,57.00
2022-08-20T16:36:46.189Z,59.14
2022-08-20T16:42:00.472Z,60.60
2022-08-20T16:47:28.284Z,60.06
2022-08-20T16:52:29.959Z,59.64
2022-08-20T16:57:31.642Z,58.72
2022-08-20T17:02:33.305Z,58.27
2022-08-20T17:07:46.983Z,58.46
2022-08-20T17:12:54.334Z,57.64
2022-08-20T17:17:56.223Z,56.72
2022-08-20T17:23:18.245Z,56.24
2022-08-20T17:28:20.440Z,55.80
2022-08-20T17:33:30.049Z,56.42
2022-08-20T17:38:45.663Z,57.58
2022-08-20T17:43:47.335Z,57.76
2022-08-20T17:48:49.154Z,57.66
2022-08-20T17:53:53.300Z,57.87
2022-08-20T17:59:03.107Z,58.66
2022-08-20T18:04:05.420Z,59.67
2022-08-20T18:09:13.189Z,60.80
2022-08-20T18:14:19.375Z,61.50
2022-08-20T18:19:42.120Z,62.14
2022-08-20T18:24:55.483Z,63.09
2022-08-20T18:29:58.845Z,64.67
2022-08-20T18:35:11.343Z,66.86
2022-08-20T18:40:17.555Z,68.74
2022-08-20T18:45:33.644Z,70.34
2022-08-20T18:50:40.967Z,71.21
2022-08-20T18:55:44.968Z,72.59
2022-08-20T19:00:48.971Z,74.27
2022-08-20T19:06:26.732Z,74.96
2022-08-20T19:11:56.936Z,75.29
2022-08-20T19:17:10.043Z,75.68
2022-08-20T19:22:12.986Z,76.81
2022-08-20T19:27:14.629Z,77.62
2022-08-20T19:32:23.584Z,78.88
2022-08-20T19:37:39.645Z,80.43
2022-08-20T19:42:49.660Z,81.23
2022-08-20T19:48:07.999Z,81.38
2022-08-20T19:53:26.452Z,81.72
2022-08-20T19:58:32.409Z,82.13
2022-08-20T20:03:35.179Z,81.79
2022-08-20T20:08:43.331Z,81.18
2022-08-20T20:13:45.086Z,78.00
2022-08-20T20:18:58.847Z,75.41
2022-08-20T20:24:08.546Z,74.89
2022-08-20T20:29:18.916Z,73.83
2022-08-20T20:34:29.143Z,74.43
2022-08-20T20:39:36.156Z,74.45
2022-08-20T20:44:41.976Z,73.64
2022-08-20T20:49:52.217Z,73.27
2022-08-20T20:55:05.033Z,73.28
2022-08-20T21:00:13.666Z,73.15
2022-08-20T21:05:16.488Z,72.86
2022-08-20T21:10:19.372Z,74.49
2022-08-20T21:15:22.010Z,74.05
2022-08-20T21:20:23.853Z,73.70
2022-08-20T21:25:26.691Z,75.53
2022-08-20T21:30:28.506Z,74.98
2022-08-20T21:35:30.251Z,74.89
2022-08-20T21:40:31.955Z,75.21
2022-08-20T21:45:33.818Z,75.26
2022-08-20T21:50:35.572Z,75.49
2022-08-20T21:55:39.583Z,75.91
2022-08-20T22:00:57.856Z,75.76
2022-08-20T22:06:00.392Z,75.57
2022-08-20T22:11:02.036Z,75.98
2022-08-20T22:16:06.211Z,75.91
2022-08-20T22:21:10.464Z,74.91
2022-08-20T22:26:12.308Z,75.11
2022-08-20T22:31:14.241Z,74.42
2022-08-20T22:36:15.971Z,76.09
2022-08-20T22:41:18.086Z,75.98
2022-08-20T22:46:19.768Z,75.30
2022-08-20T22:51:32.556Z,75.71
2022-08-20T22:56:37.031Z,75.40
2022-08-20T23:01:39.230Z,75.93
2022-08-20T23:06:41.048Z,75.94
2022-08-20T23:11:42.696Z,76.06
2022-08-20T23:16:45.260Z,76.27
2022-08-20T23:21:48.088Z,77.21
2022-08-20T23:26:53.124Z,77.08
2022-08-20T23:31:55.655Z,76.88
2022-08-20T23:36:57.519Z,77.06
2022-08-20T23:41:59.285Z,77.49
2022-08-20T23:47:02.059Z,78.17
2022-08-20T23:52:03.798Z,79.19
2022-08-20T23:57:08.102Z,79.47
